METAR AND TAF INFORMATION
METAR FOR PASI
ADDS - METARS form results

(0859 UTC 21 March 2019)
Data provider http://aviationweather.gov/metar/data/
 
METAR text: PASI 210853Z 31004KT 10SM BKN006 OVC017 07/07 A2988 RMK AO2 RAE27 SLP119 P0001 60002 T00720067 401720072 55001
Conditions at: PASI (SITKA , AK, US) observed 0853 UTC 21 March 2019
Temperature: 7.2°C (45°F)
Dewpoint: 6.7°C (44°F) [RH = 97%]
Pressure (altimeter): 29.88 inches Hg (1011.9 mb)
[Sea-level pressure: 1011.9 mb]
Winds: from the NW (310 degrees) at 5 MPH (4 knots; 2.1 m/s)
Visibility: 10 or more miles (16+ km)
Ceiling: 600 feet AGL
Clouds: broken clouds at 600 feet AGL
overcast cloud deck at 1700 feet AGL
Weather: no significant weather observed at this time

METAR text: PASI 210832Z 01005KT 10SM SCT008 BKN016 OVC095 07/07 A2988 RMK AO2 RAE27 P0001 T00720072
Conditions at: PASI (SITKA , AK, US) observed 0832 UTC 21 March 2019
Temperature: 7.2°C (45°F)
Dewpoint: 7.2°C (45°F) [RH = 100%]
Pressure (altimeter): 29.88 inches Hg (1011.9 mb)
Winds: from the N (10 degrees) at 6 MPH (5 knots; 2.6 m/s)
Visibility: 10 or more miles (16+ km)
Ceiling: 1600 feet AGL
Clouds: scattered clouds at 800 feet AGL
broken clouds at 1600 feet AGL
overcast cloud deck at 9500 feet AGL
Weather: no significant weather observed at this time

METAR text: PASI 210816Z 28003KT 10SM -RA BKN008 BKN013 OVC075 07/07 A2988 RMK AO2 P0000 T00720072
Conditions at: PASI (SITKA , AK, US) observed 0816 UTC 21 March 2019
Temperature: 7.2°C (45°F)
Dewpoint: 7.2°C (45°F) [RH = 100%]
Pressure (altimeter): 29.88 inches Hg (1011.9 mb)
Winds: from the W (280 degrees) at 3 MPH (3 knots; 1.5 m/s)
Visibility: 10 or more miles (16+ km)
Ceiling: 800 feet AGL
Clouds: broken clouds at 800 feet AGL
broken clouds at 1300 feet AGL
overcast cloud deck at 7500 feet AGL
Weather: -RA  (light rain)

METAR text: PASI 210809Z 24003KT 10SM -RA SCT008 BKN012 OVC075 07/07 A2988 RMK AO2 P0000 T00720067
Conditions at: PASI (SITKA , AK, US) observed 0809 UTC 21 March 2019
Temperature: 7.2°C (45°F)
Dewpoint: 6.7°C (44°F) [RH = 97%]
Pressure (altimeter): 29.88 inches Hg (1011.9 mb)
Winds: from the WSW (240 degrees) at 3 MPH (3 knots; 1.5 m/s)
Visibility: 10 or more miles (16+ km)
Ceiling: 1200 feet AGL
Clouds: scattered clouds at 800 feet AGL
broken clouds at 1200 feet AGL
overcast cloud deck at 7500 feet AGL
Weather: -RA  (light rain)

Forecast for: PASI (SITKA , AK, US)
Text: PASI 210520Z 2106/2206 VRB04KT P6SM -RA SCT006 BKN035 OVC050
Forecast period: 0600 to 0900 UTC 21 March 2019
Forecast type: FROM: standard forecast or significant change
Winds: variable direction winds at 5 MPH (4 knots; 2.1 m/s)
Visibility: 6 or more miles 10+ km)
Ceiling: 3500 feet AGL
Clouds: scattered clouds at 600 feet AGL
broken clouds at 3500 feet AGL
overcast cloud deck at 5000 feet AGL
Weather: -RA  (light rain)
Text: TEMPO 2106/2109 BKN006
Forecast period: 0600 to 0900 UTC 21 March 2019
Forecast type: TEMPORARY: The following changes expected for less than half the time period
Visibility: missing
Ceiling: 600 feet AGL
Clouds: broken clouds at 600 feet AGL
Weather: no significant weather forecast for this period
Text: FM210900 VRB03KT 4SM -RA BR OVC006
Forecast period: 0900 to 1500 UTC 21 March 2019
Forecast type: FROM: standard forecast or significant change
Winds: variable direction winds at 3 MPH (3 knots; 1.5 m/s)
Visibility: 4 miles (6 km)
Ceiling: 600 feet AGL
Clouds: overcast cloud deck at 600 feet AGL
Weather: -RA BR  (light rain, mist)
Text: FM211500 11005KT P6SM VCSH OVC050
Forecast period: 1500 UTC 21 March 2019 to 0600 UTC 22 March 2019
Forecast type: FROM: standard forecast or significant change
Winds: from the ESE (110 degrees) at 6 MPH (5 knots; 2.6 m/s)
Visibility: 6 or more miles 10+ km)
Ceiling: 5000 feet AGL
Clouds: overcast cloud deck at 5000 feet AGL
Weather: VCSH  (showers in vicinity)

 AIRPORT MAP

 RUNWAY INFORMATION
Runway 11 Runway length 6500 ft Runway width 150 ft
Runway elevation 19 ft Runway displaced threshold 0 ft Runway heading 136
Runway 29 Runway length 6500 ft Runway width 150 ft
Runway elevation 21 ft Runway displaced threshold 0 ft Runway heading 316

 AIRPORT FREQUENCIES
Type ATIS Name ATIS Frequency 135.9 MHZ
Type CNTR Name ANCHORAGE Frequency 126.1 MHZ
Type CTAF Name CTAF Frequency 123.6 MHZ
Type FSS Name RDO Frequency 123.6 MHZ
Type MISC Name TWEB Frequency 113.8 MHZ
Type OPS Name SITKA AIR Frequency 34.5 MHZ
Type UNIC Name UNICOM Frequency 122.95 MHZ

 AIRPORT NEAR NAVIGATION AIDS
Type VORTAC Name Biorka Island Frequency 113800 KHZ
Type NDB Name Mount Edgecumbe Frequency 414 KHZ
Type NDB Name Sitka Frequency 358 KHZ



Powered by Virtual Airlines Manager [v2.6.2]